createdAt,value
2018-09-29T00:00:26.969Z,0.00
2018-09-29T00:01:26.940Z,0.00
2018-09-29T00:02:26.909Z,0.00
2018-09-29T00:03:26.880Z,0.00
2018-09-29T00:04:26.854Z,0.00
2018-09-29T00:05:26.820Z,0.00
2018-09-29T00:06:26.792Z,0.00
2018-09-29T00:07:26.763Z,0.00
2018-09-29T00:08:26.735Z,0.00
2018-09-29T00:09:26.704Z,0.00
2018-09-29T00:10:26.674Z,0.00
2018-09-29T00:11:26.644Z,0.00
2018-09-29T00:12:26.619Z,0.00
2018-09-29T00:13:26.585Z,0.00
2018-09-29T00:14:26.559Z,0.00
2018-09-29T00:15:26.530Z,0.00
2018-09-29T00:16:26.544Z,0.00
2018-09-29T00:17:26.467Z,0.00
2018-09-29T00:18:26.439Z,0.00
2018-09-29T00:19:26.410Z,0.00
2018-09-29T00:20:26.380Z,0.00
2018-09-29T00:21:26.351Z,0.00
2018-09-29T00:22:26.322Z,0.00
2018-09-29T00:23:26.292Z,0.00
2018-09-29T00:24:26.263Z,0.00
2018-09-29T00:25:26.234Z,0.00
2018-09-29T00:26:26.203Z,0.00
2018-09-29T00:27:26.175Z,0.00
2018-09-29T00:28:26.146Z,0.00
2018-09-29T00:29:26.114Z,0.00
2018-09-29T00:30:26.086Z,0.00
2018-09-29T00:31:26.056Z,0.00
2018-09-29T00:32:26.026Z,0.00
2018-09-29T00:33:25.996Z,0.00
2018-09-29T00:34:25.968Z,0.00
2018-09-29T00:35:25.939Z,0.00
2018-09-29T00:36:25.917Z,0.00
2018-09-29T00:37:25.878Z,0.00
2018-09-29T00:38:25.848Z,0.00
2018-09-29T00:39:25.820Z,0.00
2018-09-29T00:40:25.790Z,0.00
2018-09-29T00:41:25.763Z,0.00
2018-09-29T00:42:25.730Z,0.00
2018-09-29T00:43:25.702Z,0.00
2018-09-29T00:44:25.671Z,0.00
2018-09-29T00:45:25.647Z,0.00
2018-09-29T00:46:25.611Z,0.00
2018-09-29T00:47:25.582Z,0.00
2018-09-29T00:48:25.553Z,0.00
2018-09-29T00:49:25.523Z,0.00
2018-09-29T00:50:25.495Z,0.00
2018-09-29T00:51:25.465Z,0.00
2018-09-29T00:52:25.434Z,0.00
2018-09-29T00:53:25.404Z,0.00
2018-09-29T00:54:25.375Z,0.00
2018-09-29T00:55:25.345Z,0.00
2018-09-29T00:56:25.315Z,0.00
2018-09-29T00:57:25.284Z,0.00
2018-09-29T00:58:25.255Z,0.00
2018-09-29T00:59:25.226Z,0.00
2018-09-29T01:00:25.196Z,0.00
2018-09-29T01:01:25.166Z,0.00
2018-09-29T01:02:25.136Z,0.00
2018-09-29T01:03:25.109Z,0.00
2018-09-29T01:04:25.083Z,0.00
2018-09-29T01:05:25.048Z,0.00
2018-09-29T01:06:25.018Z,0.00
2018-09-29T01:07:24.989Z,0.00
2018-09-29T01:08:24.963Z,0.00
2018-09-29T01:09:24.926Z,0.00
2018-09-29T01:10:24.896Z,0.00
2018-09-29T01:11:24.873Z,0.00
2018-09-29T01:12:24.838Z,0.00
2018-09-29T01:13:24.809Z,0.00
2018-09-29T01:14:24.803Z,0.00
2018-09-29T01:15:24.749Z,0.00
2018-09-29T01:16:24.718Z,0.00
2018-09-29T01:17:24.688Z,0.00
2018-09-29T01:18:24.658Z,0.00
2018-09-29T01:19:24.630Z,0.00
2018-09-29T01:20:24.599Z,0.00
2018-09-29T01:21:24.567Z,0.00
2018-09-29T01:22:24.538Z,0.00
2018-09-29T01:23:24.511Z,0.00
2018-09-29T01:24:24.480Z,0.00
2018-09-29T01:25:24.448Z,0.00
2018-09-29T01:26:24.420Z,0.00
2018-09-29T01:27:24.387Z,0.00
2018-09-29T01:28:24.357Z,0.00
2018-09-29T01:29:24.326Z,0.00
2018-09-29T01:30:24.297Z,0.00
2018-09-29T01:31:24.268Z,0.00
2018-09-29T01:32:24.238Z,0.00
2018-09-29T01:33:24.207Z,0.00
2018-09-29T01:34:24.176Z,0.00
2018-09-29T01:35:24.148Z,0.00
2018-09-29T01:36:24.118Z,0.00
2018-09-29T01:37:24.087Z,0.00
2018-09-29T01:38:24.059Z,0.00
2018-09-29T01:39:24.026Z,0.00
2018-09-29T01:40:23.997Z,0.00
2018-09-29T01:41:23.965Z,0.00
2018-09-29T01:42:23.935Z,0.00
2018-09-29T01:43:23.905Z,0.00
2018-09-29T01:44:23.883Z,0.00
2018-09-29T01:45:23.845Z,0.00
2018-09-29T01:46:23.813Z,0.00
2018-09-29T01:47:23.783Z,0.00
2018-09-29T01:48:23.753Z,0.00
2018-09-29T01:49:23.723Z,0.00
2018-09-29T01:50:23.691Z,0.00
2018-09-29T01:51:23.666Z,0.00
2018-09-29T01:52:23.631Z,0.00
2018-09-29T01:53:23.601Z,0.00
2018-09-29T01:54:23.571Z,0.00
2018-09-29T01:55:23.540Z,0.00
2018-09-29T01:56:23.511Z,0.00
2018-09-29T01:57:23.479Z,0.00
2018-09-29T01:58:23.448Z,0.00
2018-09-29T01:59:23.419Z,0.00
2018-09-29T02:00:23.388Z,0.00
2018-09-29T02:01:23.355Z,0.00
2018-09-29T02:02:23.327Z,0.00
2018-09-29T02:03:23.296Z,0.00
2018-09-29T02:04:23.266Z,0.00
2018-09-29T02:05:23.233Z,0.00
2018-09-29T02:06:23.204Z,0.00
2018-09-29T02:07:23.174Z,0.00
2018-09-29T02:08:23.145Z,0.00
2018-09-29T02:09:23.111Z,0.00
2018-09-29T02:10:23.081Z,0.00
2018-09-29T02:11:23.051Z,0.00
2018-09-29T02:12:23.021Z,0.00
2018-09-29T02:13:22.988Z,0.00
2018-09-29T02:14:22.958Z,0.00
2018-09-29T02:15:22.929Z,0.00
2018-09-29T02:16:22.897Z,0.00
2018-09-29T02:17:22.867Z,0.00
2018-09-29T02:18:22.838Z,0.00
2018-09-29T02:19:22.805Z,0.00
2018-09-29T02:20:22.775Z,0.00
2018-09-29T02:21:22.745Z,0.00
2018-09-29T02:22:22.713Z,0.00
2018-09-29T02:23:22.682Z,0.00
2018-09-29T02:24:22.651Z,0.00
2018-09-29T02:25:22.621Z,0.00
2018-09-29T02:26:22.590Z,0.00
2018-09-29T02:27:22.558Z,0.00
2018-09-29T02:28:22.528Z,0.00
2018-09-29T02:29:22.497Z,0.00
2018-09-29T02:30:22.472Z,0.00
2018-09-29T02:31:22.474Z,0.00
2018-09-29T02:32:22.405Z,0.00
2018-09-29T02:33:22.374Z,0.00
2018-09-29T02:34:22.343Z,0.00
2018-09-29T02:35:22.311Z,0.00
2018-09-29T02:36:22.281Z,0.00
2018-09-29T02:37:22.249Z,0.00
2018-09-29T02:38:22.219Z,0.00
2018-09-29T02:39:22.189Z,0.00
2018-09-29T02:40:22.157Z,0.00
2018-09-29T02:41:22.126Z,0.00
2018-09-29T02:42:22.096Z,0.00
2018-09-29T02:43:22.065Z,0.00
2018-09-29T02:44:22.039Z,0.00
2018-09-29T02:45:22.009Z,0.00
2018-09-29T02:46:21.973Z,0.00
2018-09-29T02:47:21.941Z,0.00
2018-09-29T02:48:21.911Z,0.00
2018-09-29T02:49:21.877Z,0.00
2018-09-29T02:50:21.849Z,0.00
2018-09-29T02:51:21.821Z,0.00
2018-09-29T02:52:21.786Z,0.00
2018-09-29T02:53:21.754Z,0.00
2018-09-29T02:54:21.723Z,0.00
2018-09-29T02:55:21.693Z,0.00
2018-09-29T02:56:21.662Z,0.00
2018-09-29T02:57:21.629Z,0.00
2018-09-29T02:58:21.600Z,0.00
2018-09-29T02:59:21.568Z,0.00
2018-09-29T03:00:21.537Z,0.00
2018-09-29T03:01:21.505Z,0.00
2018-09-29T03:02:21.473Z,0.00
2018-09-29T03:03:21.446Z,0.00
2018-09-29T03:04:21.411Z,0.00
2018-09-29T03:05:21.380Z,0.00
2018-09-29T03:06:21.349Z,0.00
2018-09-29T03:07:21.371Z,0.00
2018-09-29T03:08:21.288Z,0.00
2018-09-29T03:09:21.263Z,0.00
2018-09-29T03:10:21.226Z,0.00
2018-09-29T03:11:21.195Z,0.00
2018-09-29T03:12:21.163Z,0.00
2018-09-29T03:13:21.131Z,0.00
2018-09-29T03:14:21.099Z,0.00
2018-09-29T03:15:21.069Z,0.00
2018-09-29T03:16:21.049Z,0.00
2018-09-29T03:17:21.006Z,0.00
2018-09-29T03:18:20.974Z,0.00
2018-09-29T03:19:21.014Z,0.00
2018-09-29T03:20:20.917Z,0.00
2018-09-29T03:21:20.881Z,0.00
2018-09-29T03:22:20.849Z,0.00
2018-09-29T03:23:20.819Z,0.00
2018-09-29T03:24:20.790Z,0.00
2018-09-29T03:25:20.760Z,0.00
2018-09-29T03:26:20.729Z,0.00
2018-09-29T03:27:20.695Z,0.00
2018-09-29T03:28:20.663Z,0.00
2018-09-29T03:29:20.697Z,0.00
2018-09-29T03:30:20.599Z,0.00
2018-09-29T03:31:20.635Z,0.00
2018-09-29T03:32:20.538Z,0.00
2018-09-29T03:33:20.508Z,0.00
2018-09-29T03:34:20.473Z,0.00
2018-09-29T03:35:20.444Z,0.00
2018-09-29T03:36:20.417Z,0.00
2018-09-29T03:37:20.381Z,0.00
2018-09-29T03:38:20.349Z,0.00
2018-09-29T03:39:20.318Z,0.00
2018-09-29T03:40:20.286Z,0.00
2018-09-29T03:41:20.254Z,0.00
2018-09-29T03:42:20.223Z,0.00
2018-09-29T03:43:20.191Z,0.00
2018-09-29T03:44:20.160Z,0.00
2018-09-29T03:45:20.128Z,0.00
2018-09-29T03:46:20.096Z,0.00
2018-09-29T03:47:20.065Z,0.00
2018-09-29T03:48:20.035Z,0.00
2018-09-29T03:49:20.002Z,0.00
2018-09-29T03:50:19.969Z,0.00
2018-09-29T03:51:19.940Z,0.00
2018-09-29T03:52:19.908Z,0.00
2018-09-29T03:53:19.877Z,0.00
2018-09-29T03:54:19.847Z,0.00
2018-09-29T03:55:19.817Z,0.00
2018-09-29T03:56:19.783Z,0.00
2018-09-29T03:57:19.750Z,0.00
2018-09-29T03:58:19.719Z,0.00
2018-09-29T03:59:19.687Z,0.00
2018-09-29T04:00:19.656Z,0.00
2018-09-29T04:01:19.623Z,0.00
2018-09-29T04:02:19.607Z,0.00
2018-09-29T04:03:19.560Z,0.00
2018-09-29T04:04:19.529Z,0.00
2018-09-29T04:05:19.498Z,0.00
2018-09-29T04:06:19.467Z,0.00
2018-09-29T04:07:19.437Z,0.00
2018-09-29T04:08:19.406Z,0.00
2018-09-29T04:09:19.370Z,0.00
2018-09-29T04:10:19.339Z,0.00
2018-09-29T04:11:19.308Z,0.00
2018-09-29T04:12:19.275Z,0.00
2018-09-29T04:13:19.245Z,0.00
2018-09-29T04:14:19.211Z,0.00
2018-09-29T04:15:19.182Z,0.00
2018-09-29T04:16:19.153Z,0.00
2018-09-29T04:17:19.120Z,0.00
2018-09-29T04:18:19.085Z,0.00
2018-09-29T04:19:19.054Z,0.00
2018-09-29T04:20:19.024Z,0.00
2018-09-29T04:21:18.990Z,0.00
2018-09-29T04:22:18.957Z,0.00
2018-09-29T04:23:18.930Z,0.00
2018-09-29T04:24:18.895Z,0.00
2018-09-29T04:25:18.864Z,0.00
2018-09-29T04:26:18.832Z,0.00
2018-09-29T04:27:18.801Z,0.00
2018-09-29T04:28:18.769Z,0.00
2018-09-29T04:29:18.735Z,0.00
2018-09-29T04:30:18.705Z,0.00
2018-09-29T04:31:18.672Z,0.00
2018-09-29T04:32:18.642Z,0.00
2018-09-29T04:33:18.609Z,0.00
2018-09-29T04:34:18.576Z,0.00
2018-09-29T04:35:18.546Z,0.00
2018-09-29T04:36:18.514Z,0.00
2018-09-29T04:37:18.489Z,0.00
2018-09-29T04:38:18.452Z,0.00
2018-09-29T04:39:18.415Z,0.00
2018-09-29T04:40:18.386Z,0.00
2018-09-29T04:41:18.352Z,0.00
2018-09-29T04:42:18.323Z,0.00
2018-09-29T04:43:18.413Z,0.00
2018-09-29T04:44:18.258Z,0.00
2018-09-29T04:45:18.225Z,0.00
2018-09-29T04:46:18.193Z,0.00
2018-09-29T04:47:18.163Z,0.00
2018-09-29T04:48:18.130Z,0.00
2018-09-29T04:49:18.139Z,0.00
2018-09-29T04:50:18.068Z,0.00
2018-09-29T04:51:18.036Z,0.00
2018-09-29T04:52:18.004Z,0.00
2018-09-29T04:53:17.971Z,0.00
2018-09-29T04:54:17.939Z,0.00
2018-09-29T04:55:17.906Z,0.00
2018-09-29T04:56:17.875Z,0.00
2018-09-29T04:57:17.847Z,0.00
2018-09-29T04:58:17.810Z,5.63
2018-09-29T04:59:17.779Z,5.63
2018-09-29T05:00:17.749Z,5.63
2018-09-29T05:01:17.714Z,5.63
2018-09-29T05:02:17.682Z,5.63
2018-09-29T05:03:17.652Z,5.63
2018-09-29T05:04:17.618Z,11.25
2018-09-29T05:05:17.587Z,11.25
2018-09-29T05:06:17.605Z,11.25
2018-09-29T05:07:17.523Z,11.25
2018-09-29T05:08:17.492Z,16.88
2018-09-29T05:09:17.458Z,16.88
2018-09-29T05:10:17.428Z,16.88
2018-09-29T05:11:17.394Z,22.50
2018-09-29T05:12:17.366Z,22.50
2018-09-29T05:13:17.331Z,22.50
2018-09-29T05:14:17.299Z,28.13
2018-09-29T05:15:17.267Z,28.13
2018-09-29T05:16:17.234Z,28.13
2018-09-29T05:17:17.203Z,33.75
2018-09-29T05:18:17.171Z,33.75
2018-09-29T05:19:17.139Z,39.38
2018-09-29T05:20:17.108Z,39.38
2018-09-29T05:21:17.074Z,45.00
2018-09-29T05:22:17.043Z,45.00
2018-09-29T05:23:17.069Z,50.63
2018-09-29T05:24:16.985Z,50.63
2018-09-29T05:25:16.946Z,56.25
2018-09-29T05:26:16.915Z,56.25
2018-09-29T05:27:16.882Z,61.88
2018-09-29T05:28:16.851Z,61.88
2018-09-29T05:29:16.819Z,67.50
2018-09-29T05:30:16.785Z,73.13
2018-09-29T05:31:16.753Z,73.13
2018-09-29T05:32:16.723Z,78.75
2018-09-29T05:33:16.689Z,78.75
2018-09-29T05:34:16.657Z,84.38
2018-09-29T05:35:16.626Z,90.00
2018-09-29T05:36:16.593Z,90.00
2018-09-29T05:37:16.564Z,95.63
2018-09-29T05:38:16.537Z,95.63
2018-09-29T05:39:16.499Z,101.25
2018-09-29T05:40:16.466Z,106.88
2018-09-29T05:41:16.433Z,106.88
2018-09-29T05:42:16.402Z,112.50
2018-09-29T05:43:16.369Z,112.50
2018-09-29T05:44:16.342Z,118.13
2018-09-29T05:45:16.306Z,123.75
2018-09-29T05:46:16.272Z,123.75
2018-09-29T05:47:16.242Z,123.75
2018-09-29T05:48:16.316Z,123.75
2018-09-29T05:49:16.178Z,129.38
2018-09-29T05:50:16.147Z,129.38
2018-09-29T05:51:16.113Z,135.00
2018-09-29T05:52:16.081Z,140.63
2018-09-29T05:53:16.050Z,140.63
2018-09-29T05:54:16.022Z,146.25
2018-09-29T05:55:15.987Z,146.25
2018-09-29T05:56:15.955Z,151.88
2018-09-29T05:57:15.923Z,168.75
2018-09-29T05:58:15.890Z,168.75
2018-09-29T05:59:15.859Z,163.13
2018-09-29T06:00:15.907Z,174.38
2018-09-29T06:01:15.795Z,225.00
2018-09-29T06:02:15.783Z,270.00
2018-09-29T06:03:15.731Z,275.63
2018-09-29T06:04:15.701Z,247.50
2018-09-29T06:05:15.727Z,208.13
2018-09-29T06:06:15.637Z,191.25
2018-09-29T06:07:15.682Z,191.25
2018-09-29T06:08:15.593Z,196.88
2018-09-29T06:09:15.543Z,241.88
2018-09-29T06:10:15.512Z,315.00
2018-09-29T06:11:15.481Z,337.50
2018-09-29T06:12:15.449Z,348.75
2018-09-29T06:13:15.541Z,354.38
2018-09-29T06:14:15.388Z,371.25
2018-09-29T06:15:15.358Z,382.50
2018-09-29T06:16:15.328Z,393.75
2018-09-29T06:17:15.297Z,393.75
2018-09-29T06:18:15.269Z,393.75
2018-09-29T06:19:15.239Z,388.13
2018-09-29T06:20:15.209Z,399.38
2018-09-29T06:21:15.179Z,421.88
2018-09-29T06:22:15.152Z,444.38
2018-09-29T06:23:15.126Z,455.63
2018-09-29T06:24:15.095Z,455.63
2018-09-29T06:25:15.064Z,466.88
2018-09-29T06:26:15.039Z,466.88
2018-09-29T06:27:15.011Z,483.75
2018-09-29T06:28:14.982Z,506.25
2018-09-29T06:29:14.957Z,528.75
2018-09-29T06:30:14.932Z,545.63
2018-09-29T06:31:14.902Z,540.00
2018-09-29T06:32:14.878Z,517.50
2018-09-29T06:33:14.848Z,517.50
2018-09-29T06:34:14.882Z,540.00
2018-09-29T06:35:14.796Z,556.88
2018-09-29T06:36:14.770Z,568.13
2018-09-29T06:37:14.745Z,573.75
2018-09-29T06:38:14.731Z,579.38
2018-09-29T06:39:14.692Z,590.63
2018-09-29T06:40:14.669Z,601.88
2018-09-29T06:41:14.643Z,613.13
2018-09-29T06:42:14.616Z,624.38
2018-09-29T06:43:14.593Z,646.88
2018-09-29T06:44:14.570Z,675.00
2018-09-29T06:45:14.544Z,669.38
2018-09-29T06:46:14.518Z,675.00
2018-09-29T06:47:14.494Z,691.88
2018-09-29T06:48:14.577Z,703.13
2018-09-29T06:49:14.447Z,708.75
2018-09-29T06:50:14.421Z,731.25
2018-09-29T06:51:14.396Z,753.75
2018-09-29T06:52:14.373Z,765.00
2018-09-29T06:53:14.350Z,753.75
2018-09-29T06:54:14.325Z,736.88
2018-09-29T06:55:14.301Z,731.25
2018-09-29T06:56:14.279Z,736.88
2018-09-29T06:57:14.257Z,753.75
2018-09-29T06:58:14.230Z,765.00
2018-09-29T06:59:14.208Z,776.25
2018-09-29T07:00:14.185Z,793.13
2018-09-29T07:01:14.160Z,804.38
2018-09-29T07:02:14.137Z,793.13
2018-09-29T07:03:14.117Z,787.50
2018-09-29T07:04:14.109Z,810.00
2018-09-29T07:05:14.069Z,838.13
2018-09-29T07:06:14.046Z,843.75
2018-09-29T07:07:14.023Z,838.13
2018-09-29T07:08:14.000Z,826.88
2018-09-29T07:09:13.978Z,821.25
2018-09-29T07:10:13.956Z,838.13
2018-09-29T07:11:13.931Z,871.88
2018-09-29T07:12:13.909Z,905.63
2018-09-29T07:13:13.887Z,928.13
2018-09-29T07:14:13.864Z,939.38
2018-09-29T07:15:13.842Z,950.63
2018-09-29T07:16:13.820Z,967.50
2018-09-29T07:17:13.798Z,1001.25
2018-09-29T07:18:13.776Z,1012.50
2018-09-29T07:19:13.758Z,1012.50
2018-09-29T07:20:13.729Z,995.63
2018-09-29T07:21:13.709Z,973.13
2018-09-29T07:22:13.688Z,973.13
2018-09-29T07:23:13.664Z,995.63
2018-09-29T07:24:13.643Z,1046.25
2018-09-29T07:25:13.680Z,1096.88
2018-09-29T07:26:13.601Z,1102.50
2018-09-29T07:27:13.578Z,1063.13
2018-09-29T07:28:13.557Z,1006.88
2018-09-29T07:29:13.533Z,984.38
2018-09-29T07:30:13.512Z,1018.13
2018-09-29T07:31:13.502Z,1068.75
2018-09-29T07:32:13.469Z,1102.50
2018-09-29T07:33:13.449Z,1125.00
2018-09-29T07:34:13.427Z,1113.75
2018-09-29T07:35:13.408Z,1096.88
2018-09-29T07:36:13.386Z,1074.38
2018-09-29T07:37:13.365Z,1068.75
2018-09-29T07:38:13.344Z,1080.00
2018-09-29T07:39:13.327Z,1125.00
2018-09-29T07:40:13.302Z,1170.00
2018-09-29T07:41:13.280Z,1186.88
2018-09-29T07:42:13.260Z,1170.00
2018-09-29T07:43:13.240Z,1136.25
2018-09-29T07:44:13.218Z,1130.63
2018-09-29T07:45:13.202Z,1153.13
2018-09-29T07:46:13.176Z,1209.38
2018-09-29T07:47:13.158Z,1226.25
2018-09-29T07:48:13.135Z,1231.88
2018-09-29T07:49:13.130Z,1231.88
2018-09-29T07:50:13.092Z,1220.63
2018-09-29T07:51:13.072Z,1203.75
2018-09-29T07:52:13.050Z,1170.00
2018-09-29T07:53:13.029Z,1158.75
2018-09-29T07:54:13.009Z,1153.13
2018-09-29T07:55:12.991Z,1175.63
2018-09-29T07:56:12.982Z,1198.13
2018-09-29T07:57:12.946Z,1237.50
2018-09-29T07:58:12.926Z,1276.88
2018-09-29T07:59:12.905Z,1316.25
2018-09-29T08:00:12.884Z,1344.38
2018-09-29T08:01:12.864Z,1333.13
2018-09-29T08:02:12.844Z,1310.63
2018-09-29T08:03:12.825Z,1265.63
2018-09-29T08:04:12.804Z,1220.63
2018-09-29T08:05:12.784Z,1198.13
2018-09-29T08:06:12.811Z,1186.88
2018-09-29T08:07:12.743Z,1186.88
2018-09-29T08:08:12.722Z,1203.75
2018-09-29T08:09:12.701Z,1220.63
2018-09-29T08:10:12.681Z,1254.38
2018-09-29T08:11:12.661Z,1282.50
2018-09-29T08:12:12.647Z,1305.00
2018-09-29T08:13:12.621Z,1299.38
2018-09-29T08:14:12.601Z,1282.50
2018-09-29T08:15:12.582Z,1254.38
2018-09-29T08:16:12.566Z,1248.75
2018-09-29T08:17:12.540Z,1248.75
2018-09-29T08:18:12.521Z,1271.25
2018-09-29T08:19:12.501Z,1282.50
2018-09-29T08:20:12.481Z,1288.13
2018-09-29T08:21:12.461Z,1299.38
2018-09-29T08:22:12.439Z,1305.00
2018-09-29T08:23:12.422Z,1333.13
2018-09-29T08:24:12.409Z,1378.13
2018-09-29T08:25:12.381Z,1411.88
2018-09-29T08:26:12.362Z,1440.00
2018-09-29T08:27:12.341Z,1462.50
2018-09-29T08:28:12.324Z,1456.88
2018-09-29T08:29:12.303Z,1423.13
2018-09-29T08:30:12.284Z,1411.88
2018-09-29T08:31:12.264Z,1383.75
2018-09-29T08:32:12.268Z,1366.88
2018-09-29T08:33:12.224Z,1383.75
2018-09-29T08:34:12.252Z,1417.50
2018-09-29T08:35:12.186Z,1434.38
2018-09-29T08:36:12.169Z,1462.50
2018-09-29T08:37:12.146Z,1462.50
2018-09-29T08:38:12.128Z,1445.63
2018-09-29T08:39:12.111Z,1434.38
2018-09-29T08:40:12.089Z,1445.63
2018-09-29T08:41:12.068Z,1445.63
2018-09-29T08:42:12.048Z,1462.50
2018-09-29T08:43:12.029Z,1479.38
2018-09-29T08:44:12.031Z,1496.25
2018-09-29T08:45:11.989Z,1485.00
2018-09-29T08:46:11.968Z,1479.38
2018-09-29T08:47:11.950Z,1473.75
2018-09-29T08:48:11.935Z,1479.38
2018-09-29T08:49:11.916Z,1479.38
2018-09-29T08:50:11.892Z,1507.50
2018-09-29T08:51:11.872Z,1546.88
2018-09-29T08:52:11.851Z,1586.25
2018-09-29T08:53:11.935Z,1563.75
2018-09-29T08:54:11.817Z,1513.13
2018-09-29T08:55:11.793Z,1451.25
2018-09-29T08:56:11.775Z,1389.38
2018-09-29T08:57:11.755Z,1350.00
2018-09-29T08:58:11.735Z,1333.13
2018-09-29T08:59:11.717Z,1350.00
2018-09-29T09:00:11.696Z,1400.63
2018-09-29T09:01:11.677Z,1468.13
2018-09-29T09:02:11.658Z,1541.25
2018-09-29T09:03:11.638Z,1591.88
2018-09-29T09:04:11.621Z,1636.88
2018-09-29T09:05:11.600Z,1659.38
2018-09-29T09:06:11.581Z,1636.88
2018-09-29T09:07:11.564Z,1631.25
2018-09-29T09:08:11.545Z,1597.50
2018-09-29T09:09:11.525Z,1575.00
2018-09-29T09:10:11.504Z,1569.38
2018-09-29T09:11:11.486Z,1563.75
2018-09-29T09:12:11.467Z,1580.63
2018-09-29T09:13:11.446Z,1614.38
2018-09-29T09:14:11.429Z,1648.13
2018-09-29T09:15:11.410Z,1687.50
2018-09-29T09:16:11.392Z,1715.63
2018-09-29T09:17:11.372Z,1738.13
2018-09-29T09:18:11.353Z,1777.50
2018-09-29T09:19:11.337Z,1777.50
2018-09-29T09:20:11.319Z,1771.88
2018-09-29T09:21:11.297Z,1749.38
2018-09-29T09:22:11.278Z,1738.13
2018-09-29T09:23:11.310Z,1710.00
2018-09-29T09:24:11.281Z,1681.88
2018-09-29T09:25:11.224Z,1642.50
2018-09-29T09:26:11.205Z,1614.38
2018-09-29T09:27:11.186Z,1597.50
2018-09-29T09:28:11.168Z,1591.88
2018-09-29T09:29:11.148Z,1608.75
2018-09-29T09:30:11.244Z,1631.25
2018-09-29T09:31:11.113Z,1665.00
2018-09-29T09:32:11.098Z,1704.38
2018-09-29T09:33:11.074Z,1732.50
2018-09-29T09:34:11.057Z,1738.13
2018-09-29T09:35:11.041Z,1749.38
2018-09-29T09:36:11.021Z,1766.25
2018-09-29T09:37:11.002Z,1766.25
2018-09-29T09:38:10.984Z,1760.63
2018-09-29T09:39:10.968Z,1788.75
2018-09-29T09:40:10.949Z,1811.25
2018-09-29T09:41:10.930Z,1833.75
2018-09-29T09:42:10.912Z,1850.63
2018-09-29T09:43:10.898Z,1856.25
2018-09-29T09:44:10.877Z,1873.13
2018-09-29T09:45:10.860Z,1890.00
2018-09-29T09:46:10.841Z,1878.75
2018-09-29T09:47:10.823Z,1861.88
2018-09-29T09:48:10.810Z,1850.63
2018-09-29T09:49:10.787Z,1839.38
2018-09-29T09:50:10.767Z,1800.00
2018-09-29T09:51:10.750Z,1833.75
2018-09-29T09:52:10.731Z,1771.88
2018-09-29T09:53:10.712Z,1856.25
2018-09-29T09:54:10.695Z,1890.00
2018-09-29T09:55:10.678Z,1935.00
2018-09-29T09:56:10.724Z,1957.50
2018-09-29T09:57:10.641Z,1946.25
2018-09-29T09:58:10.623Z,1884.38
2018-09-29T09:59:10.605Z,1845.00
2018-09-29T10:00:10.588Z,1755.00
2018-09-29T10:01:10.569Z,1693.13
2018-09-29T10:02:10.551Z,1603.13
2018-09-29T10:03:10.533Z,1535.63
2018-09-29T10:04:10.528Z,1546.88
2018-09-29T10:05:10.498Z,1603.13
2018-09-29T10:06:10.478Z,1659.38
2018-09-29T10:07:10.462Z,1704.38
2018-09-29T10:08:10.444Z,1715.63
2018-09-29T10:09:10.426Z,1704.38
2018-09-29T10:10:10.409Z,1676.25
2018-09-29T10:11:10.390Z,1665.00
2018-09-29T10:12:10.376Z,1631.25
2018-09-29T10:13:10.355Z,1636.88
2018-09-29T10:14:10.335Z,1648.13
2018-09-29T10:15:10.319Z,1670.63
2018-09-29T10:16:10.300Z,1726.88
2018-09-29T10:17:10.281Z,1771.88
2018-09-29T10:18:10.264Z,1794.38
2018-09-29T10:19:10.247Z,1822.50
2018-09-29T10:20:10.230Z,1839.38
2018-09-29T10:21:10.210Z,1839.38
2018-09-29T10:22:10.196Z,1861.88
2018-09-29T10:23:10.176Z,1867.50
2018-09-29T10:24:10.159Z,1850.63
2018-09-29T10:25:10.141Z,1856.25
2018-09-29T10:26:10.123Z,877.50
2018-09-29T10:27:10.107Z,1884.38
2018-09-29T10:28:10.090Z,1935.00
2018-09-29T10:29:10.070Z,1968.75
2018-09-29T10:30:10.052Z,984.38
2018-09-29T10:31:10.035Z,1046.25
2018-09-29T10:32:10.019Z,2098.13
2018-09-29T10:33:09.999Z,2058.75
2018-09-29T10:34:09.982Z,1996.88
2018-09-29T10:35:09.964Z,2036.25
2018-09-29T10:36:09.968Z,1119.38
2018-09-29T10:37:09.927Z,1968.75
2018-09-29T10:38:09.910Z,1980.00
2018-09-29T10:39:09.895Z,1951.88
2018-09-29T10:40:09.874Z,1918.13
2018-09-29T10:41:09.857Z,1918.13
2018-09-29T10:42:09.849Z,843.75
2018-09-29T10:43:09.821Z,849.38
2018-09-29T10:44:09.822Z,1794.38
2018-09-29T10:45:09.786Z,748.13
2018-09-29T10:46:09.767Z,731.25
2018-09-29T10:47:09.751Z,753.75
2018-09-29T10:48:09.733Z,2030.63
2018-09-29T10:49:09.714Z,2030.63
2018-09-29T10:50:09.697Z,2008.13
2018-09-29T10:51:09.678Z,1985.63
2018-09-29T10:52:09.661Z,1985.63
2018-09-29T10:53:09.640Z,2002.50
2018-09-29T10:54:09.624Z,1991.25
2018-09-29T10:55:09.606Z,1985.63
2018-09-29T10:56:09.594Z,1051.88
2018-09-29T10:57:09.570Z,810.00
2018-09-29T10:58:09.552Z,720.00
2018-09-29T10:59:09.543Z,686.25
2018-09-29T11:00:09.519Z,680.63
2018-09-29T11:01:09.504Z,680.63
2018-09-29T11:02:09.481Z,691.88
2018-09-29T11:03:09.463Z,731.25
2018-09-29T11:04:09.444Z,1175.63
2018-09-29T11:05:09.505Z,883.13
2018-09-29T11:06:09.408Z,826.88
2018-09-29T11:07:09.389Z,838.13
2018-09-29T11:08:09.370Z,984.38
2018-09-29T11:09:09.350Z,877.50
2018-09-29T11:10:09.332Z,832.50
2018-09-29T11:11:09.312Z,815.63
2018-09-29T11:12:09.293Z,815.63
2018-09-29T11:13:09.273Z,776.25
2018-09-29T11:14:09.254Z,753.75
2018-09-29T11:15:09.241Z,742.50
2018-09-29T11:16:09.215Z,731.25
2018-09-29T11:17:09.194Z,748.13
2018-09-29T11:18:09.179Z,1957.50
2018-09-29T11:19:09.156Z,2165.63
2018-09-29T11:20:09.137Z,2137.50
2018-09-29T11:21:09.116Z,2103.75
2018-09-29T11:22:09.095Z,2115.00
2018-09-29T11:23:09.076Z,2143.13
2018-09-29T11:24:09.057Z,2165.63
2018-09-29T11:25:09.036Z,1068.75
2018-09-29T11:26:09.015Z,2120.63
2018-09-29T11:27:08.997Z,1046.25
2018-09-29T11:28:09.033Z,1895.63
2018-09-29T11:29:08.958Z,1411.88
2018-09-29T11:30:08.941Z,697.50
2018-09-29T11:31:08.920Z,641.25
2018-09-29T11:32:08.900Z,596.25
2018-09-29T11:33:08.880Z,562.50
2018-09-29T11:34:08.860Z,551.25
2018-09-29T11:35:08.842Z,540.00
2018-09-29T11:36:08.821Z,534.38
2018-09-29T11:37:08.800Z,534.38
2018-09-29T11:38:08.782Z,540.00
2018-09-29T11:39:08.779Z,551.25
2018-09-29T11:40:08.745Z,556.88
2018-09-29T11:41:08.722Z,573.75
2018-09-29T11:42:08.700Z,601.88
2018-09-29T11:43:08.681Z,635.63
2018-09-29T11:44:08.661Z,675.00
2018-09-29T11:45:08.640Z,703.13
2018-09-29T11:46:08.619Z,731.25
2018-09-29T11:47:08.598Z,765.00
2018-09-29T11:48:08.578Z,787.50
2018-09-29T11:49:08.558Z,798.75
2018-09-29T11:50:08.537Z,815.63
2018-09-29T11:51:08.515Z,832.50
2018-09-29T11:52:08.496Z,849.38
2018-09-29T11:53:08.474Z,855.00
2018-09-29T11:54:08.452Z,843.75
2018-09-29T11:55:08.430Z,826.88
2018-09-29T11:56:08.435Z,810.00
2018-09-29T11:57:08.389Z,798.75
2018-09-29T11:58:08.368Z,793.13
2018-09-29T11:59:08.347Z,787.50
2018-09-29T12:00:08.325Z,770.63
2018-09-29T12:01:08.305Z,765.00
2018-09-29T12:02:08.341Z,759.38
2018-09-29T12:03:08.263Z,770.63
2018-09-29T12:04:08.241Z,765.00
2018-09-29T12:05:08.220Z,748.13
2018-09-29T12:06:08.222Z,742.50
2018-09-29T12:07:08.244Z,753.75
2018-09-29T12:08:08.203Z,753.75
2018-09-29T12:09:08.136Z,753.75
2018-09-29T12:10:08.112Z,770.63
2018-09-29T12:11:08.091Z,781.88
2018-09-29T12:12:08.070Z,776.25
2018-09-29T12:13:08.049Z,770.63
2018-09-29T12:14:08.029Z,753.75
2018-09-29T12:15:08.005Z,731.25
2018-09-29T12:16:07.985Z,725.63
2018-09-29T12:17:07.959Z,731.25
2018-09-29T12:18:07.938Z,753.75
2018-09-29T12:19:07.917Z,950.63
2018-09-29T12:20:07.895Z,1395.00
2018-09-29T12:21:07.913Z,1057.50
2018-09-29T12:22:07.881Z,1091.25
2018-09-29T12:23:07.829Z,995.63
2018-09-29T12:24:07.809Z,933.75
2018-09-29T12:25:07.785Z,894.38
2018-09-29T12:26:07.764Z,860.63
2018-09-29T12:27:07.742Z,832.50
2018-09-29T12:28:07.721Z,815.63
2018-09-29T12:29:07.698Z,781.88
2018-09-29T12:30:07.677Z,765.00
2018-09-29T12:31:07.655Z,753.75
2018-09-29T12:32:07.632Z,725.63
2018-09-29T12:33:07.613Z,708.75
2018-09-29T12:34:07.590Z,675.00
2018-09-29T12:35:07.567Z,652.50
2018-09-29T12:36:07.547Z,641.25
2018-09-29T12:37:07.629Z,646.88
2018-09-29T12:38:07.502Z,669.38
2018-09-29T12:39:07.481Z,708.75
2018-09-29T12:40:07.458Z,787.50
2018-09-29T12:41:07.443Z,1170.00